sensor_id;sensor_type;location;lat;lon;timestamp;temperature;humidity
71177;DHT22;58877;51.992;4.504;2023-05-10T00:01:47;13.14;88.87
71177;DHT22;58877;51.992;4.504;2023-05-10T00:04:13;13.18;88.75
71177;DHT22;58877;51.992;4.504;2023-05-10T00:06:39;13.15;88.91
71177;DHT22;58877;51.992;4.504;2023-05-10T00:09:04;13.16;88.73
71177;DHT22;58877;51.992;4.504;2023-05-10T00:11:30;13.30;88.77
71177;DHT22;58877;51.992;4.504;2023-05-10T00:13:56;13.22;88.76
71177;DHT22;58877;51.992;4.504;2023-05-10T00:16:21;13.20;89.12
71177;DHT22;58877;51.992;4.504;2023-05-10T00:18:47;13.18;89.28
71177;DHT22;58877;51.992;4.504;2023-05-10T00:21:13;13.20;89.25
71177;DHT22;58877;51.992;4.504;2023-05-10T00:23:38;13.29;89.15
71177;DHT22;58877;51.992;4.504;2023-05-10T00:26:04;13.23;89.11
71177;DHT22;58877;51.992;4.504;2023-05-10T00:28:30;13.23;89.25
71177;DHT22;58877;51.992;4.504;2023-05-10T00:30:56;13.28;89.22
71177;DHT22;58877;51.992;4.504;2023-05-10T00:33:21;13.30;89.32
71177;DHT22;58877;51.992;4.504;2023-05-10T00:35:47;13.32;89.43
71177;DHT22;58877;51.992;4.504;2023-05-10T00:38:13;13.34;89.54
71177;DHT22;58877;51.992;4.504;2023-05-10T00:40:39;13.34;89.46
71177;DHT22;58877;51.992;4.504;2023-05-10T00:43:05;13.30;89.37
71177;DHT22;58877;51.992;4.504;2023-05-10T00:45:33;13.26;89.53
71177;DHT22;58877;51.992;4.504;2023-05-10T00:48:04;13.32;89.45
71177;DHT22;58877;51.992;4.504;2023-05-10T00:50:30;13.34;89.60
71177;DHT22;58877;51.992;4.504;2023-05-10T00:52:59;13.38;89.56
71177;DHT22;58877;51.992;4.504;2023-05-10T00:55:26;13.42;89.51
71177;DHT22;58877;51.992;4.504;2023-05-10T00:57:53;13.43;89.41
71177;DHT22;58877;51.992;4.504;2023-05-10T01:00:19;13.45;89.55
71177;DHT22;58877;51.992;4.504;2023-05-10T01:02:46;13.46;89.52
71177;DHT22;58877;51.992;4.504;2023-05-10T01:05:12;13.50;89.05
71177;DHT22;58877;51.992;4.504;2023-05-10T01:07:39;13.43;89.27
71177;DHT22;58877;51.992;4.504;2023-05-10T01:10:06;13.38;89.51
71177;DHT22;58877;51.992;4.504;2023-05-10T01:12:35;13.35;89.85
71177;DHT22;58877;51.992;4.504;2023-05-10T01:15:03;13.29;89.97
71177;DHT22;58877;51.992;4.504;2023-05-10T01:17:30;13.40;90.05
71177;DHT22;58877;51.992;4.504;2023-05-10T01:19:59;13.35;90.02
71177;DHT22;58877;51.992;4.504;2023-05-10T01:25:51;13.39;90.33
71177;DHT22;58877;51.992;4.504;2023-05-10T01:28:50;13.45;90.38
71177;DHT22;58877;51.992;4.504;2023-05-10T01:31:51;13.49;90.14
71177;DHT22;58877;51.992;4.504;2023-05-10T01:34:26;13.55;90.17
71177;DHT22;58877;51.992;4.504;2023-05-10T01:37:00;13.58;90.06
71177;DHT22;58877;51.992;4.504;2023-05-10T01:39:40;13.59;89.95
71177;DHT22;58877;51.992;4.504;2023-05-10T01:42:11;13.69;89.77
71177;DHT22;58877;51.992;4.504;2023-05-10T01:49:55;13.63;89.83
71177;DHT22;58877;51.992;4.504;2023-05-10T01:52:27;13.62;89.91
71177;DHT22;58877;51.992;4.504;2023-05-10T01:55:01;13.59;90.10
71177;DHT22;58877;51.992;4.504;2023-05-10T01:57:34;13.56;90.05
71177;DHT22;58877;51.992;4.504;2023-05-10T02:00:05;13.55;90.36
71177;DHT22;58877;51.992;4.504;2023-05-10T02:02:38;13.42;90.64
71177;DHT22;58877;51.992;4.504;2023-05-10T02:05:06;13.38;90.98
71177;DHT22;58877;51.992;4.504;2023-05-10T02:07:35;13.43;91.11
71177;DHT22;58877;51.992;4.504;2023-05-10T02:10:04;13.38;90.97
71177;DHT22;58877;51.992;4.504;2023-05-10T02:12:35;13.23;91.41
71177;DHT22;58877;51.992;4.504;2023-05-10T02:15:05;13.28;91.50
71177;DHT22;58877;51.992;4.504;2023-05-10T02:17:35;13.29;91.29
71177;DHT22;58877;51.992;4.504;2023-05-10T02:20:05;13.20;91.51
71177;DHT22;58877;51.992;4.504;2023-05-10T02:22:32;13.25;91.26
71177;DHT22;58877;51.992;4.504;2023-05-10T02:25:00;13.23;91.41
71177;DHT22;58877;51.992;4.504;2023-05-10T02:27:27;13.28;91.19
71177;DHT22;58877;51.992;4.504;2023-05-10T02:29:55;13.30;91.27
71177;DHT22;58877;51.992;4.504;2023-05-10T02:32:25;13.26;91.34
71177;DHT22;58877;51.992;4.504;2023-05-10T02:34:52;13.29;91.27
71177;DHT22;58877;51.992;4.504;2023-05-10T02:37:20;13.34;91.31
71177;DHT22;58877;51.992;4.504;2023-05-10T02:39:50;13.34;91.25
71177;DHT22;58877;51.992;4.504;2023-05-10T02:42:19;13.20;91.41
71177;DHT22;58877;51.992;4.504;2023-05-10T02:44:50;13.16;91.83
71177;DHT22;58877;51.992;4.504;2023-05-10T02:47:19;13.20;91.78
71177;DHT22;58877;51.992;4.504;2023-05-10T02:49:45;13.22;91.70
71177;DHT22;58877;51.992;4.504;2023-05-10T02:52:19;13.34;91.53
71177;DHT22;58877;51.992;4.504;2023-05-10T02:54:50;13.34;91.35
71177;DHT22;58877;51.992;4.504;2023-05-10T02:57:17;13.29;91.48
71177;DHT22;58877;51.992;4.504;2023-05-10T02:59:47;13.30;91.50
71177;DHT22;58877;51.992;4.504;2023-05-10T03:02:13;13.23;91.70
71177;DHT22;58877;51.992;4.504;2023-05-10T03:04:38;13.23;91.67
71177;DHT22;58877;51.992;4.504;2023-05-10T03:07:04;13.08;91.86
71177;DHT22;58877;51.992;4.504;2023-05-10T03:09:31;13.05;92.20
71177;DHT22;58877;51.992;4.504;2023-05-10T03:20:35;13.18;92.01
71177;DHT22;58877;51.992;4.504;2023-05-10T03:23:13;13.09;91.77
71177;DHT22;58877;51.992;4.504;2023-05-10T03:25:40;13.02;91.94
71177;DHT22;58877;51.992;4.504;2023-05-10T03:28:07;12.92;92.06
71177;DHT22;58877;51.992;4.504;2023-05-10T03:30:33;12.95;92.21
71177;DHT22;58877;51.992;4.504;2023-05-10T03:33:07;12.91;92.24
71177;DHT22;58877;51.992;4.504;2023-05-10T03:35:33;12.98;92.46
71177;DHT22;58877;51.992;4.504;2023-05-10T03:37:59;12.92;92.46
71177;DHT22;58877;51.992;4.504;2023-05-10T03:40:26;12.96;92.37
71177;DHT22;58877;51.992;4.504;2023-05-10T03:42:54;13.01;92.37
71177;DHT22;58877;51.992;4.504;2023-05-10T03:45:20;13.05;92.09
71177;DHT22;58877;51.992;4.504;2023-05-10T03:47:46;12.99;92.04
71177;DHT22;58877;51.992;4.504;2023-05-10T03:50:12;12.98;92.27
71177;DHT22;58877;51.992;4.504;2023-05-10T03:52:37;12.99;92.19
71177;DHT22;58877;51.992;4.504;2023-05-10T03:55:05;12.96;92.30
71177;DHT22;58877;51.992;4.504;2023-05-10T03:57:31;12.98;92.37
71177;DHT22;58877;51.992;4.504;2023-05-10T03:59:57;13.04;92.38
71177;DHT22;58877;51.992;4.504;2023-05-10T04:02:23;13.01;92.27
71177;DHT22;58877;51.992;4.504;2023-05-10T04:04:48;13.02;92.23
71177;DHT22;58877;51.992;4.504;2023-05-10T04:07:14;12.91;92.35
71177;DHT22;58877;51.992;4.504;2023-05-10T04:09:40;13.01;92.48
71177;DHT22;58877;51.992;4.504;2023-05-10T04:12:06;12.92;92.37
71177;DHT22;58877;51.992;4.504;2023-05-10T04:14:32;12.87;92.62
71177;DHT22;58877;51.992;4.504;2023-05-10T04:16:57;12.80;92.72
71177;DHT22;58877;51.992;4.504;2023-05-10T04:19:23;12.64;93.05
71177;DHT22;58877;51.992;4.504;2023-05-10T04:21:49;12.65;93.17
71177;DHT22;58877;51.992;4.504;2023-05-10T04:24:14;12.58;93.31
71177;DHT22;58877;51.992;4.504;2023-05-10T04:26:40;12.55;93.37
71177;DHT22;58877;51.992;4.504;2023-05-10T04:29:06;12.53;93.70
71177;DHT22;58877;51.992;4.504;2023-05-10T04:31:31;12.63;93.41
71177;DHT22;58877;51.992;4.504;2023-05-10T04:33:57;12.60;93.36
71177;DHT22;58877;51.992;4.504;2023-05-10T04:36:23;12.54;93.10
71177;DHT22;58877;51.992;4.504;2023-05-10T04:38:48;12.44;93.71
71177;DHT22;58877;51.992;4.504;2023-05-10T04:41:14;12.41;93.60
71177;DHT22;58877;51.992;4.504;2023-05-10T04:43:39;12.43;93.74
71177;DHT22;58877;51.992;4.504;2023-05-10T04:46:05;12.34;93.86
71177;DHT22;58877;51.992;4.504;2023-05-10T04:48:31;12.20;94.02
71177;DHT22;58877;51.992;4.504;2023-05-10T04:50:56;12.07;94.43
71177;DHT22;58877;51.992;4.504;2023-05-10T04:53:22;12.17;94.59
71177;DHT22;58877;51.992;4.504;2023-05-10T04:55:48;12.27;94.41
71177;DHT22;58877;51.992;4.504;2023-05-10T04:58:24;12.41;93.95
71177;DHT22;58877;51.992;4.504;2023-05-10T05:00:50;12.31;93.96
71177;DHT22;58877;51.992;4.504;2023-05-10T05:03:16;12.41;93.75
71177;DHT22;58877;51.992;4.504;2023-05-10T05:05:42;12.41;93.68
71177;DHT22;58877;51.992;4.504;2023-05-10T05:18:22;12.33;92.50
71177;DHT22;58877;51.992;4.504;2023-05-10T05:21:23;12.26;92.81
71177;DHT22;58877;51.992;4.504;2023-05-10T05:23:56;12.40;92.66
71177;DHT22;58877;51.992;4.504;2023-05-10T05:26:27;12.45;91.92
71177;DHT22;58877;51.992;4.504;2023-05-10T05:32:15;12.45;91.79
71177;DHT22;58877;51.992;4.504;2023-05-10T05:34:41;12.47;91.93
71177;DHT22;58877;51.992;4.504;2023-05-10T05:37:07;12.43;91.97
71177;DHT22;58877;51.992;4.504;2023-05-10T05:39:40;12.51;91.82
71177;DHT22;58877;51.992;4.504;2023-05-10T05:42:14;12.55;91.88
71177;DHT22;58877;51.992;4.504;2023-05-10T05:44:41;12.55;91.73
71177;DHT22;58877;51.992;4.504;2023-05-10T05:47:07;12.63;91.70
71177;DHT22;58877;51.992;4.504;2023-05-10T05:49:32;12.80;91.59
71177;DHT22;58877;51.992;4.504;2023-05-10T05:52:03;12.98;91.17
71177;DHT22;58877;51.992;4.504;2023-05-10T05:54:29;12.98;90.78
71177;DHT22;58877;51.992;4.504;2023-05-10T05:56:57;12.75;91.10
71177;DHT22;58877;51.992;4.504;2023-05-10T05:59:23;12.77;91.41
71177;DHT22;58877;51.992;4.504;2023-05-10T06:01:49;12.85;91.08
71177;DHT22;58877;51.992;4.504;2023-05-10T06:04:19;12.87;91.02
71177;DHT22;58877;51.992;4.504;2023-05-10T06:06:45;12.98;90.93
71177;DHT22;58877;51.992;4.504;2023-05-10T06:09:11;12.77;90.72
71177;DHT22;58877;51.992;4.504;2023-05-10T06:11:38;12.89;91.21
71177;DHT22;58877;51.992;4.504;2023-05-10T06:14:04;13.19;90.92
71177;DHT22;58877;51.992;4.504;2023-05-10T06:16:32;13.40;90.01
71177;DHT22;58877;51.992;4.504;2023-05-10T06:18:58;13.35;89.73
71177;DHT22;58877;51.992;4.504;2023-05-10T06:21:23;13.50;89.83
71177;DHT22;58877;51.992;4.504;2023-05-10T06:23:49;13.43;88.82
71177;DHT22;58877;51.992;4.504;2023-05-10T06:26:15;13.46;89.72
71177;DHT22;58877;51.992;4.504;2023-05-10T06:28:40;13.62;89.03
71177;DHT22;58877;51.992;4.504;2023-05-10T06:31:07;13.76;89.02
71177;DHT22;58877;51.992;4.504;2023-05-10T06:33:33;13.70;87.99
71177;DHT22;58877;51.992;4.504;2023-05-10T06:35:59;13.73;88.25
71177;DHT22;58877;51.992;4.504;2023-05-10T06:38:25;13.77;87.81
71177;DHT22;58877;51.992;4.504;2023-05-10T06:40:54;13.71;87.94
71177;DHT22;58877;51.992;4.504;2023-05-10T06:43:19;13.94;88.11
71177;DHT22;58877;51.992;4.504;2023-05-10T06:45:45;14.14;87.71
71177;DHT22;58877;51.992;4.504;2023-05-10T06:48:10;13.99;87.40
71177;DHT22;58877;51.992;4.504;2023-05-10T06:50:36;14.40;87.51
71177;DHT22;58877;51.992;4.504;2023-05-10T06:53:02;14.54;86.09
71177;DHT22;58877;51.992;4.504;2023-05-10T06:55:29;14.14;86.05
71177;DHT22;58877;51.992;4.504;2023-05-10T06:57:54;14.11;86.74
71177;DHT22;58877;51.992;4.504;2023-05-10T07:00:20;14.20;87.20
71177;DHT22;58877;51.992;4.504;2023-05-10T07:02:46;14.18;86.54
71177;DHT22;58877;51.992;4.504;2023-05-10T07:05:12;14.14;86.94
71177;DHT22;58877;51.992;4.504;2023-05-10T07:07:38;14.17;86.42
71177;DHT22;58877;51.992;4.504;2023-05-10T07:10:04;14.10;86.36
71177;DHT22;58877;51.992;4.504;2023-05-10T07:12:30;14.10;86.81
71177;DHT22;58877;51.992;4.504;2023-05-10T07:14:55;14.17;86.63
71177;DHT22;58877;51.992;4.504;2023-05-10T07:17:21;14.31;85.86
71177;DHT22;58877;51.992;4.504;2023-05-10T07:19:47;14.51;86.76
71177;DHT22;58877;51.992;4.504;2023-05-10T07:22:15;14.64;86.21
71177;DHT22;58877;51.992;4.504;2023-05-10T07:24:42;14.60;85.63
71177;DHT22;58877;51.992;4.504;2023-05-10T07:27:08;14.31;85.46
71177;DHT22;58877;51.992;4.504;2023-05-10T07:29:34;14.28;86.38
71177;DHT22;58877;51.992;4.504;2023-05-10T07:32:00;14.34;86.18
71177;DHT22;58877;51.992;4.504;2023-05-10T07:34:26;14.49;86.28
71177;DHT22;58877;51.992;4.504;2023-05-10T07:36:52;14.60;86.12
71177;DHT22;58877;51.992;4.504;2023-05-10T07:39:18;14.41;85.75
71177;DHT22;58877;51.992;4.504;2023-05-10T07:41:45;14.41;86.26
71177;DHT22;58877;51.992;4.504;2023-05-10T07:44:11;14.63;86.25
71177;DHT22;58877;51.992;4.504;2023-05-10T07:46:37;14.63;85.87
71177;DHT22;58877;51.992;4.504;2023-05-10T07:49:04;14.41;86.05
71177;DHT22;58877;51.992;4.504;2023-05-10T07:51:29;14.54;86.38
71177;DHT22;58877;51.992;4.504;2023-05-10T07:53:55;14.52;86.09
71177;DHT22;58877;51.992;4.504;2023-05-10T07:56:25;14.24;86.16
71177;DHT22;58877;51.992;4.504;2023-05-10T07:59:02;14.27;86.96
71177;DHT22;58877;51.992;4.504;2023-05-10T08:01:34;14.52;86.97
71177;DHT22;58877;51.992;4.504;2023-05-10T08:04:00;14.48;86.27
71177;DHT22;58877;51.992;4.504;2023-05-10T08:06:27;14.37;86.28
71177;DHT22;58877;51.992;4.504;2023-05-10T08:08:55;14.37;86.49
71177;DHT22;58877;51.992;4.504;2023-05-10T08:11:21;14.06;86.25
71177;DHT22;58877;51.992;4.504;2023-05-10T08:13:49;14.25;87.13
71177;DHT22;58877;51.992;4.504;2023-05-10T08:16:16;14.34;86.76
71177;DHT22;58877;51.992;4.504;2023-05-10T08:18:44;14.48;86.32
71177;DHT22;58877;51.992;4.504;2023-05-10T08:21:10;14.57;86.10
71177;DHT22;58877;51.992;4.504;2023-05-10T08:23:36;14.52;85.82
71177;DHT22;58877;51.992;4.504;2023-05-10T08:26:03;14.63;85.74
71177;DHT22;58877;51.992;4.504;2023-05-10T08:28:29;14.72;85.37
71177;DHT22;58877;51.992;4.504;2023-05-10T08:30:55;14.95;85.42
71177;DHT22;58877;51.992;4.504;2023-05-10T08:33:20;15.16;84.10
71177;DHT22;58877;51.992;4.504;2023-05-10T08:35:46;15.18;83.40
71177;DHT22;58877;51.992;4.504;2023-05-10T08:38:12;15.20;83.40
71177;DHT22;58877;51.992;4.504;2023-05-10T08:40:42;15.35;83.76
71177;DHT22;58877;51.992;4.504;2023-05-10T08:43:12;15.49;83.11
71177;DHT22;58877;51.992;4.504;2023-05-10T08:45:44;15.53;82.41
71177;DHT22;58877;51.992;4.504;2023-05-10T08:48:14;15.63;82.35
71177;DHT22;58877;51.992;4.504;2023-05-10T08:50:41;15.61;81.95
71177;DHT22;58877;51.992;4.504;2023-05-10T08:53:12;15.77;81.50
71177;DHT22;58877;51.992;4.504;2023-05-10T08:55:39;15.79;81.77
71177;DHT22;58877;51.992;4.504;2023-05-10T08:58:06;15.89;81.10
71177;DHT22;58877;51.992;4.504;2023-05-10T09:00:32;15.77;81.57
71177;DHT22;58877;51.992;4.504;2023-05-10T09:02:59;15.57;81.46
71177;DHT22;58877;51.992;4.504;2023-05-10T09:05:25;15.57;81.93
71177;DHT22;58877;51.992;4.504;2023-05-10T09:07:51;15.46;82.64
71177;DHT22;58877;51.992;4.504;2023-05-10T09:10:17;15.46;82.42
71177;DHT22;58877;51.992;4.504;2023-05-10T09:12:44;15.49;81.84
71177;DHT22;58877;51.992;4.504;2023-05-10T09:15:15;15.38;82.27
71177;DHT22;58877;51.992;4.504;2023-05-10T09:17:41;15.26;82.33
71177;DHT22;58877;51.992;4.504;2023-05-10T09:20:07;15.22;83.21
71177;DHT22;58877;51.992;4.504;2023-05-10T09:22:34;14.82;84.03
71177;DHT22;58877;51.992;4.504;2023-05-10T09:27:31;14.89;84.66
71177;DHT22;58877;51.992;4.504;2023-05-10T09:29:57;15.13;84.16
71177;DHT22;58877;51.992;4.504;2023-05-10T09:32:42;14.75;83.65
71177;DHT22;58877;51.992;4.504;2023-05-10T09:35:11;14.65;84.64
71177;DHT22;58877;51.992;4.504;2023-05-10T09:37:42;14.76;84.62
71177;DHT22;58877;51.992;4.504;2023-05-10T09:40:26;14.84;84.07
71177;DHT22;58877;51.992;4.504;2023-05-10T09:43:08;14.93;84.24
71177;DHT22;58877;51.992;4.504;2023-05-10T09:45:36;15.19;84.33
71177;DHT22;58877;51.992;4.504;2023-05-10T09:48:03;15.33;83.02
71177;DHT22;58877;51.992;4.504;2023-05-10T09:50:30;15.40;82.58
71177;DHT22;58877;51.992;4.504;2023-05-10T09:52:57;15.33;82.09
71177;DHT22;58877;51.992;4.504;2023-05-10T09:55:45;15.26;81.69
71177;DHT22;58877;51.992;4.504;2023-05-10T09:58:12;15.25;82.12
71177;DHT22;58877;51.992;4.504;2023-05-10T10:00:45;15.42;81.48
71177;DHT22;58877;51.992;4.504;2023-05-10T10:03:18;15.47;81.56
71177;DHT22;58877;51.992;4.504;2023-05-10T10:05:46;15.61;81.60
71177;DHT22;58877;51.992;4.504;2023-05-10T10:08:12;15.71;80.87
71177;DHT22;58877;51.992;4.504;2023-05-10T10:10:39;16.01;80.16
71177;DHT22;58877;51.992;4.504;2023-05-10T10:13:11;15.87;79.63
71177;DHT22;58877;51.992;4.504;2023-05-10T10:15:38;16.05;80.02
71177;DHT22;58877;51.992;4.504;2023-05-10T10:18:05;15.94;78.75
71177;DHT22;58877;51.992;4.504;2023-05-10T10:20:31;16.04;78.50
71177;DHT22;58877;51.992;4.504;2023-05-10T10:22:57;16.32;78.48
71177;DHT22;58877;51.992;4.504;2023-05-10T10:25:22;16.56;78.47
71177;DHT22;58877;51.992;4.504;2023-05-10T10:30:39;16.17;78.91
71177;DHT22;58877;51.992;4.504;2023-05-10T10:36:12;15.46;79.84
71177;DHT22;58877;51.992;4.504;2023-05-10T10:41:32;15.39;81.17
71177;DHT22;58877;51.992;4.504;2023-05-10T10:52:27;15.60;81.51
71177;DHT22;58877;51.992;4.504;2023-05-10T10:57:31;15.73;79.89
71177;DHT22;58877;51.992;4.504;2023-05-10T11:05:35;15.19;81.54
71177;DHT22;58877;51.992;4.504;2023-05-10T11:11:01;15.53;79.82
71177;DHT22;58877;51.992;4.504;2023-05-10T11:13:39;15.69;80.56
71177;DHT22;58877;51.992;4.504;2023-05-10T11:18:41;15.26;81.02
71177;DHT22;58877;51.992;4.504;2023-05-10T11:21:17;15.33;81.27
71177;DHT22;58877;51.992;4.504;2023-05-10T11:23:56;15.30;81.49
71177;DHT22;58877;51.992;4.504;2023-05-10T11:26:24;15.42;81.32
71177;DHT22;58877;51.992;4.504;2023-05-10T11:28:53;15.61;79.96
71177;DHT22;58877;51.992;4.504;2023-05-10T11:31:23;15.63;79.93
71177;DHT22;58877;51.992;4.504;2023-05-10T11:33:57;15.66;78.21
71177;DHT22;58877;51.992;4.504;2023-05-10T11:36:25;15.40;79.12
71177;DHT22;58877;51.992;4.504;2023-05-10T11:38:53;15.38;79.09
71177;DHT22;58877;51.992;4.504;2023-05-10T11:41:20;15.39;79.84
71177;DHT22;58877;51.992;4.504;2023-05-10T11:43:50;15.86;79.25
71177;DHT22;58877;51.992;4.504;2023-05-10T11:46:19;15.77;78.59
71177;DHT22;58877;51.992;4.504;2023-05-10T11:48:47;16.11;77.22
71177;DHT22;58877;51.992;4.504;2023-05-10T11:51:14;15.84;76.33
71177;DHT22;58877;51.992;4.504;2023-05-10T11:53:40;15.91;79.11
71177;DHT22;58877;51.992;4.504;2023-05-10T11:56:08;16.10;77.78
71177;DHT22;58877;51.992;4.504;2023-05-10T11:58:36;15.89;78.22
71177;DHT22;58877;51.992;4.504;2023-05-10T12:01:04;16.03;78.73
71177;DHT22;58877;51.992;4.504;2023-05-10T12:03:31;16.11;77.07
71177;DHT22;58877;51.992;4.504;2023-05-10T12:05:59;16.15;77.32
71177;DHT22;58877;51.992;4.504;2023-05-10T12:08:27;15.67;77.13
71177;DHT22;58877;51.992;4.504;2023-05-10T12:11:04;15.53;79.11
71177;DHT22;58877;51.992;4.504;2023-05-10T12:13:29;15.20;78.51
71177;DHT22;58877;51.992;4.504;2023-05-10T12:15:59;15.30;79.47
71177;DHT22;58877;51.992;4.504;2023-05-10T12:18:26;15.33;79.34
71177;DHT22;58877;51.992;4.504;2023-05-10T12:20:52;15.25;80.35
71177;DHT22;58877;51.992;4.504;2023-05-10T12:23:20;15.30;80.01
71177;DHT22;58877;51.992;4.504;2023-05-10T12:25:46;15.25;79.83
71177;DHT22;58877;51.992;4.504;2023-05-10T12:28:12;15.08;80.39
71177;DHT22;58877;51.992;4.504;2023-05-10T12:30:38;14.98;80.57
71177;DHT22;58877;51.992;4.504;2023-05-10T12:33:12;14.91;80.90
71177;DHT22;58877;51.992;4.504;2023-05-10T12:35:49;15.06;80.71
71177;DHT22;58877;51.992;4.504;2023-05-10T12:38:38;15.06;81.39
71177;DHT22;58877;51.992;4.504;2023-05-10T12:41:06;15.13;80.37
71177;DHT22;58877;51.992;4.504;2023-05-10T12:43:33;15.35;80.61
71177;DHT22;58877;51.992;4.504;2023-05-10T12:46:11;15.42;79.72
71177;DHT22;58877;51.992;4.504;2023-05-10T12:48:38;15.50;78.88
71177;DHT22;58877;51.992;4.504;2023-05-10T12:51:05;15.57;79.24
71177;DHT22;58877;51.992;4.504;2023-05-10T12:53:31;15.51;78.48
71177;DHT22;58877;51.992;4.504;2023-05-10T12:55:56;15.36;79.12
71177;DHT22;58877;51.992;4.504;2023-05-10T12:58:22;15.32;78.57
71177;DHT22;58877;51.992;4.504;2023-05-10T13:00:48;15.43;78.72
71177;DHT22;58877;51.992;4.504;2023-05-10T13:03:14;15.67;78.61
71177;DHT22;58877;51.992;4.504;2023-05-10T13:05:41;15.74;78.22
71177;DHT22;58877;51.992;4.504;2023-05-10T13:08:06;15.64;77.68
71177;DHT22;58877;51.992;4.504;2023-05-10T13:10:32;15.40;78.68
71177;DHT22;58877;51.992;4.504;2023-05-10T13:12:58;15.49;78.54
71177;DHT22;58877;51.992;4.504;2023-05-10T13:15:25;15.46;78.09
71177;DHT22;58877;51.992;4.504;2023-05-10T13:17:52;15.44;78.80
71177;DHT22;58877;51.992;4.504;2023-05-10T13:20:18;15.15;79.62
71177;DHT22;58877;51.992;4.504;2023-05-10T13:22:44;15.30;79.73
71177;DHT22;58877;51.992;4.504;2023-05-10T13:25:10;15.60;79.29
71177;DHT22;58877;51.992;4.504;2023-05-10T13:27:37;15.29;79.20
71177;DHT22;58877;51.992;4.504;2023-05-10T13:30:03;15.46;79.37
71177;DHT22;58877;51.992;4.504;2023-05-10T13:32:29;15.47;79.07
71177;DHT22;58877;51.992;4.504;2023-05-10T13:34:55;15.67;78.61
71177;DHT22;58877;51.992;4.504;2023-05-10T13:37:21;15.70;78.70
71177;DHT22;58877;51.992;4.504;2023-05-10T13:39:47;15.53;79.18
71177;DHT22;58877;51.992;4.504;2023-05-10T13:42:13;15.49;79.00
71177;DHT22;58877;51.992;4.504;2023-05-10T13:44:38;15.33;79.05
71177;DHT22;58877;51.992;4.504;2023-05-10T13:47:04;15.44;79.61
71177;DHT22;58877;51.992;4.504;2023-05-10T13:49:30;15.35;79.04
71177;DHT22;58877;51.992;4.504;2023-05-10T13:51:56;15.40;79.84
71177;DHT22;58877;51.992;4.504;2023-05-10T13:54:23;15.53;79.46
71177;DHT22;58877;51.992;4.504;2023-05-10T13:56:49;15.71;78.72
71177;DHT22;58877;51.992;4.504;2023-05-10T13:59:14;15.70;78.58
71177;DHT22;58877;51.992;4.504;2023-05-10T14:01:41;15.67;78.60
71177;DHT22;58877;51.992;4.504;2023-05-10T14:04:07;15.51;79.50
71177;DHT22;58877;51.992;4.504;2023-05-10T14:06:36;15.60;79.19
71177;DHT22;58877;51.992;4.504;2023-05-10T14:09:05;15.66;78.66
71177;DHT22;58877;51.992;4.504;2023-05-10T14:11:30;15.63;78.61
71177;DHT22;58877;51.992;4.504;2023-05-10T14:13:56;15.69;78.53
71177;DHT22;58877;51.992;4.504;2023-05-10T14:16:22;15.51;79.81
71177;DHT22;58877;51.992;4.504;2023-05-10T14:18:47;15.91;79.02
71177;DHT22;58877;51.992;4.504;2023-05-10T14:21:15;15.86;78.43
71177;DHT22;58877;51.992;4.504;2023-05-10T14:23:41;16.04;78.25
71177;DHT22;58877;51.992;4.504;2023-05-10T14:26:07;15.80;77.36
71177;DHT22;58877;51.992;4.504;2023-05-10T14:28:33;15.70;78.25
71177;DHT22;58877;51.992;4.504;2023-05-10T14:30:58;15.47;78.61
71177;DHT22;58877;51.992;4.504;2023-05-10T14:33:24;15.59;79.58
71177;DHT22;58877;51.992;4.504;2023-05-10T14:35:50;15.76;78.81
71177;DHT22;58877;51.992;4.504;2023-05-10T14:38:16;15.89;77.99
71177;DHT22;58877;51.992;4.504;2023-05-10T14:40:41;15.59;78.28
71177;DHT22;58877;51.992;4.504;2023-05-10T14:43:08;15.73;78.54
71177;DHT22;58877;51.992;4.504;2023-05-10T14:45:34;15.84;77.66
71177;DHT22;58877;51.992;4.504;2023-05-10T14:48:00;15.91;77.82
71177;DHT22;58877;51.992;4.504;2023-05-10T14:50:26;16.08;77.19
71177;DHT22;58877;51.992;4.504;2023-05-10T14:52:52;15.94;77.98
71177;DHT22;58877;51.992;4.504;2023-05-10T14:55:17;16.00;77.75
71177;DHT22;58877;51.992;4.504;2023-05-10T14:57:43;16.04;78.00
71177;DHT22;58877;51.992;4.504;2023-05-10T15:00:09;16.03;76.86
71177;DHT22;58877;51.992;4.504;2023-05-10T15:02:35;15.97;77.03
71177;DHT22;58877;51.992;4.504;2023-05-10T15:05:01;16.17;77.07
71177;DHT22;58877;51.992;4.504;2023-05-10T15:07:44;15.86;76.66
71177;DHT22;58877;51.992;4.504;2023-05-10T15:10:31;16.10;76.55
71177;DHT22;58877;51.992;4.504;2023-05-10T15:13:00;15.87;76.87
71177;DHT22;58877;51.992;4.504;2023-05-10T15:15:27;15.73;78.05
71177;DHT22;58877;51.992;4.504;2023-05-10T15:17:55;15.98;77.55
71177;DHT22;58877;51.992;4.504;2023-05-10T15:20:26;16.25;75.91
71177;DHT22;58877;51.992;4.504;2023-05-10T15:22:55;16.20;76.05
71177;DHT22;58877;51.992;4.504;2023-05-10T15:25:21;15.94;76.41
71177;DHT22;58877;51.992;4.504;2023-05-10T15:27:51;15.91;77.14
71177;DHT22;58877;51.992;4.504;2023-05-10T15:30:20;15.94;76.78
71177;DHT22;58877;51.992;4.504;2023-05-10T15:32:48;15.90;76.27
71177;DHT22;58877;51.992;4.504;2023-05-10T15:35:17;15.87;77.29
71177;DHT22;58877;51.992;4.504;2023-05-10T15:37:43;15.87;76.72
71177;DHT22;58877;51.992;4.504;2023-05-10T15:40:12;15.76;77.12
71177;DHT22;58877;51.992;4.504;2023-05-10T15:42:37;15.83;77.46
71177;DHT22;58877;51.992;4.504;2023-05-10T15:45:04;15.90;76.96
71177;DHT22;58877;51.992;4.504;2023-05-10T15:47:30;16.01;76.56
71177;DHT22;58877;51.992;4.504;2023-05-10T15:49:56;16.27;76.80
71177;DHT22;58877;51.992;4.504;2023-05-10T15:52:22;16.31;75.42
71177;DHT22;58877;51.992;4.504;2023-05-10T15:54:49;16.13;75.69
71177;DHT22;58877;51.992;4.504;2023-05-10T15:57:17;16.08;75.74
71177;DHT22;58877;51.992;4.504;2023-05-10T15:59:43;15.93;75.95
71177;DHT22;58877;51.992;4.504;2023-05-10T16:02:10;15.83;76.48
71177;DHT22;58877;51.992;4.504;2023-05-10T16:04:38;15.84;76.48
71177;DHT22;58877;51.992;4.504;2023-05-10T16:07:04;16.07;76.94
71177;DHT22;58877;51.992;4.504;2023-05-10T16:09:30;16.22;76.29
71177;DHT22;58877;51.992;4.504;2023-05-10T16:11:56;16.20;76.41
71177;DHT22;58877;51.992;4.504;2023-05-10T16:14:22;16.35;75.82
71177;DHT22;58877;51.992;4.504;2023-05-10T16:16:51;16.64;75.66
71177;DHT22;58877;51.992;4.504;2023-05-10T16:19:20;16.56;74.64
71177;DHT22;58877;51.992;4.504;2023-05-10T16:21:52;16.32;75.27
71177;DHT22;58877;51.992;4.504;2023-05-10T16:24:18;16.58;75.03
71177;DHT22;58877;51.992;4.504;2023-05-10T16:31:19;16.27;75.28
71177;DHT22;58877;51.992;4.504;2023-05-10T16:34:15;16.03;76.25
71177;DHT22;58877;51.992;4.504;2023-05-10T16:36:59;15.89;76.80
71177;DHT22;58877;51.992;4.504;2023-05-10T16:43:58;15.73;77.73
71177;DHT22;58877;51.992;4.504;2023-05-10T16:46:28;15.61;77.64
71177;DHT22;58877;51.992;4.504;2023-05-10T16:48:57;15.47;78.29